sensor_id;sensor_type;location;lat;lon;timestamp;P1;durP1;ratioP1;P2;durP2;ratioP2
37305;SDS011;23193;42.656;21.170;2023-05-10T00:00:47;11.38;;;4.97;;
37305;SDS011;23193;42.656;21.170;2023-05-10T00:03:13;7.13;;;5.40;;
37305;SDS011;23193;42.656;21.170;2023-05-10T00:05:39;6.97;;;4.82;;
37305;SDS011;23193;42.656;21.170;2023-05-10T00:08:06;6.03;;;4.88;;
37305;SDS011;23193;42.656;21.170;2023-05-10T00:10:32;6.95;;;5.55;;
37305;SDS011;23193;42.656;21.170;2023-05-10T00:12:58;11.85;;;6.10;;
37305;SDS011;23193;42.656;21.170;2023-05-10T00:15:25;8.07;;;5.30;;
37305;SDS011;23193;42.656;21.170;2023-05-10T00:17:51;9.35;;;5.32;;
37305;SDS011;23193;42.656;21.170;2023-05-10T00:20:17;6.47;;;5.10;;
37305;SDS011;23193;42.656;21.170;2023-05-10T00:22:43;8.85;;;5.07;;
37305;SDS011;23193;42.656;21.170;2023-05-10T00:25:09;6.72;;;4.70;;
37305;SDS011;23193;42.656;21.170;2023-05-10T00:27:35;6.60;;;3.50;;
37305;SDS011;23193;42.656;21.170;2023-05-10T00:30:02;3.72;;;3.25;;
37305;SDS011;23193;42.656;21.170;2023-05-10T00:32:28;4.97;;;2.65;;
37305;SDS011;23193;42.656;21.170;2023-05-10T00:34:54;3.75;;;2.53;;
37305;SDS011;23193;42.656;21.170;2023-05-10T00:37:21;4.95;;;3.05;;
37305;SDS011;23193;42.656;21.170;2023-05-10T00:39:47;4.40;;;3.47;;
37305;SDS011;23193;42.656;21.170;2023-05-10T00:42:13;8.30;;;4.45;;
37305;SDS011;23193;42.656;21.170;2023-05-10T00:44:39;5.47;;;2.83;;
37305;SDS011;23193;42.656;21.170;2023-05-10T00:47:05;6.13;;;3.58;;
37305;SDS011;23193;42.656;21.170;2023-05-10T00:49:32;5.93;;;3.10;;
37305;SDS011;23193;42.656;21.170;2023-05-10T00:51:58;4.75;;;3.35;;
37305;SDS011;23193;42.656;21.170;2023-05-10T00:54:24;5.10;;;3.67;;
37305;SDS011;23193;42.656;21.170;2023-05-10T00:56:51;4.90;;;3.55;;
37305;SDS011;23193;42.656;21.170;2023-05-10T00:59:17;7.70;;;5.07;;
37305;SDS011;23193;42.656;21.170;2023-05-10T01:01:44;7.15;;;5.03;;
37305;SDS011;23193;42.656;21.170;2023-05-10T01:04:14;6.43;;;4.78;;
37305;SDS011;23193;42.656;21.170;2023-05-10T01:06:40;7.97;;;5.00;;
37305;SDS011;23193;42.656;21.170;2023-05-10T01:09:07;6.07;;;4.38;;
37305;SDS011;23193;42.656;21.170;2023-05-10T01:11:37;9.98;;;5.07;;
37305;SDS011;23193;42.656;21.170;2023-05-10T01:14:04;6.82;;;5.00;;
37305;SDS011;23193;42.656;21.170;2023-05-10T01:16:32;7.57;;;5.07;;
37305;SDS011;23193;42.656;21.170;2023-05-10T01:18:59;7.65;;;4.68;;
37305;SDS011;23193;42.656;21.170;2023-05-10T01:34:42;6.03;;;3.60;;
37305;SDS011;23193;42.656;21.170;2023-05-10T01:37:16;5.35;;;3.83;;
37305;SDS011;23193;42.656;21.170;2023-05-10T01:39:47;6.30;;;3.35;;
37305;SDS011;23193;42.656;21.170;2023-05-10T01:42:25;6.53;;;3.05;;
37305;SDS011;23193;42.656;21.170;2023-05-10T01:44:55;5.07;;;2.40;;
37305;SDS011;23193;42.656;21.170;2023-05-10T01:47:31;4.35;;;2.63;;
37305;SDS011;23193;42.656;21.170;2023-05-10T01:50:01;3.35;;;2.05;;
37305;SDS011;23193;42.656;21.170;2023-05-10T01:52:32;3.65;;;1.98;;
37305;SDS011;23193;42.656;21.170;2023-05-10T01:55:02;6.97;;;2.10;;
37305;SDS011;23193;42.656;21.170;2023-05-10T01:57:33;3.72;;;2.45;;
37305;SDS011;23193;42.656;21.170;2023-05-10T02:00:01;4.57;;;2.42;;
37305;SDS011;23193;42.656;21.170;2023-05-10T02:02:28;3.40;;;2.58;;
37305;SDS011;23193;42.656;21.170;2023-05-10T02:04:55;3.20;;;2.40;;
37305;SDS011;23193;42.656;21.170;2023-05-10T02:07:23;8.40;;;2.35;;
37305;SDS011;23193;42.656;21.170;2023-05-10T02:09:49;2.85;;;1.98;;
37305;SDS011;23193;42.656;21.170;2023-05-10T02:12:16;3.90;;;2.03;;
37305;SDS011;23193;42.656;21.170;2023-05-10T02:14:42;3.47;;;2.08;;
37305;SDS011;23193;42.656;21.170;2023-05-10T02:17:09;2.65;;;2.00;;
37305;SDS011;23193;42.656;21.170;2023-05-10T02:19:36;3.00;;;2.00;;
37305;SDS011;23193;42.656;21.170;2023-05-10T02:22:03;3.13;;;1.90;;
37305;SDS011;23193;42.656;21.170;2023-05-10T02:24:30;3.00;;;2.15;;
37305;SDS011;23193;42.656;21.170;2023-05-10T02:26:57;2.28;;;1.90;;
37305;SDS011;23193;42.656;21.170;2023-05-10T02:29:24;2.47;;;1.73;;
37305;SDS011;23193;42.656;21.170;2023-05-10T02:31:52;3.22;;;2.08;;
37305;SDS011;23193;42.656;21.170;2023-05-10T02:34:19;3.55;;;2.53;;
37305;SDS011;23193;42.656;21.170;2023-05-10T02:36:45;2.25;;;1.83;;
37305;SDS011;23193;42.656;21.170;2023-05-10T02:39:12;3.13;;;2.05;;
37305;SDS011;23193;42.656;21.170;2023-05-10T02:41:40;2.38;;;2.03;;
37305;SDS011;23193;42.656;21.170;2023-05-10T02:44:06;3.63;;;2.47;;
37305;SDS011;23193;42.656;21.170;2023-05-10T02:46:33;4.85;;;1.90;;
37305;SDS011;23193;42.656;21.170;2023-05-10T02:49:00;3.00;;;1.77;;
37305;SDS011;23193;42.656;21.170;2023-05-10T02:51:28;2.78;;;2.00;;
37305;SDS011;23193;42.656;21.170;2023-05-10T02:53:56;6.40;;;1.93;;
37305;SDS011;23193;42.656;21.170;2023-05-10T02:56:28;3.03;;;2.22;;
37305;SDS011;23193;42.656;21.170;2023-05-10T02:58:55;4.05;;;2.40;;
37305;SDS011;23193;42.656;21.170;2023-05-10T03:01:21;3.08;;;2.55;;
37305;SDS011;23193;42.656;21.170;2023-05-10T03:03:48;3.00;;;2.70;;
37305;SDS011;23193;42.656;21.170;2023-05-10T03:06:14;2.50;;;1.90;;
37305;SDS011;23193;42.656;21.170;2023-05-10T03:08:41;2.47;;;2.05;;
37305;SDS011;23193;42.656;21.170;2023-05-10T03:16:29;3.20;;;2.65;;
37305;SDS011;23193;42.656;21.170;2023-05-10T03:18:58;3.85;;;2.67;;
37305;SDS011;23193;42.656;21.170;2023-05-10T03:23:58;5.60;;;4.18;;
37305;SDS011;23193;42.656;21.170;2023-05-10T03:26:26;8.40;;;4.35;;
37305;SDS011;23193;42.656;21.170;2023-05-10T03:28:53;8.20;;;4.28;;
37305;SDS011;23193;42.656;21.170;2023-05-10T03:31:20;5.80;;;3.97;;
37305;SDS011;23193;42.656;21.170;2023-05-10T03:33:50;6.32;;;4.45;;
37305;SDS011;23193;42.656;21.170;2023-05-10T03:36:16;7.95;;;3.70;;
37305;SDS011;23193;42.656;21.170;2023-05-10T03:38:42;5.97;;;4.22;;
37305;SDS011;23193;42.656;21.170;2023-05-10T03:41:08;8.30;;;4.45;;
37305;SDS011;23193;42.656;21.170;2023-05-10T03:43:35;9.20;;;4.80;;
37305;SDS011;23193;42.656;21.170;2023-05-10T03:46:04;5.25;;;4.07;;
37305;SDS011;23193;42.656;21.170;2023-05-10T03:48:31;6.57;;;4.45;;
37305;SDS011;23193;42.656;21.170;2023-05-10T03:50:58;5.32;;;4.30;;
37305;SDS011;23193;42.656;21.170;2023-05-10T03:53:24;5.32;;;4.38;;
37305;SDS011;23193;42.656;21.170;2023-05-10T03:55:50;6.53;;;4.10;;
37305;SDS011;23193;42.656;21.170;2023-05-10T03:58:16;5.05;;;3.95;;
37305;SDS011;23193;42.656;21.170;2023-05-10T04:00:43;5.50;;;4.20;;
37305;SDS011;23193;42.656;21.170;2023-05-10T04:03:10;6.90;;;4.57;;
37305;SDS011;23193;42.656;21.170;2023-05-10T04:05:37;5.80;;;3.90;;
37305;SDS011;23193;42.656;21.170;2023-05-10T04:08:03;5.22;;;3.80;;
37305;SDS011;23193;42.656;21.170;2023-05-10T04:10:30;12.05;;;4.43;;
37305;SDS011;23193;42.656;21.170;2023-05-10T04:12:56;8.10;;;4.38;;
37305;SDS011;23193;42.656;21.170;2023-05-10T04:15:22;6.93;;;4.07;;
37305;SDS011;23193;42.656;21.170;2023-05-10T04:17:49;5.00;;;4.40;;
37305;SDS011;23193;42.656;21.170;2023-05-10T04:20:16;4.50;;;3.83;;
37305;SDS011;23193;42.656;21.170;2023-05-10T04:22:42;6.30;;;4.28;;
37305;SDS011;23193;42.656;21.170;2023-05-10T04:25:08;8.25;;;4.15;;
37305;SDS011;23193;42.656;21.170;2023-05-10T04:27:35;7.30;;;4.60;;
37305;SDS011;23193;42.656;21.170;2023-05-10T04:30:01;4.40;;;3.85;;
37305;SDS011;23193;42.656;21.170;2023-05-10T04:32:27;7.32;;;4.47;;
37305;SDS011;23193;42.656;21.170;2023-05-10T04:34:54;5.60;;;4.20;;
37305;SDS011;23193;42.656;21.170;2023-05-10T04:37:20;8.45;;;4.00;;
37305;SDS011;23193;42.656;21.170;2023-05-10T04:39:47;6.68;;;4.40;;
37305;SDS011;23193;42.656;21.170;2023-05-10T04:42:14;4.80;;;3.72;;
37305;SDS011;23193;42.656;21.170;2023-05-10T04:44:40;8.23;;;4.88;;
37305;SDS011;23193;42.656;21.170;2023-05-10T04:47:06;7.57;;;4.00;;
37305;SDS011;23193;42.656;21.170;2023-05-10T04:49:32;6.43;;;4.18;;
37305;SDS011;23193;42.656;21.170;2023-05-10T04:51:59;8.18;;;5.50;;
37305;SDS011;23193;42.656;21.170;2023-05-10T04:54:25;11.23;;;6.85;;
37305;SDS011;23193;42.656;21.170;2023-05-10T04:56:51;12.35;;;6.40;;
37305;SDS011;23193;42.656;21.170;2023-05-10T04:59:17;12.02;;;7.30;;
37305;SDS011;23193;42.656;21.170;2023-05-10T05:01:43;10.20;;;6.05;;
37305;SDS011;23193;42.656;21.170;2023-05-10T05:04:09;10.65;;;6.35;;
37305;SDS011;23193;42.656;21.170;2023-05-10T05:06:36;12.75;;;6.63;;
37305;SDS011;23193;42.656;21.170;2023-05-10T05:09:02;12.15;;;6.75;;
37305;SDS011;23193;42.656;21.170;2023-05-10T05:11:28;11.20;;;6.32;;
37305;SDS011;23193;42.656;21.170;2023-05-10T05:13:55;10.27;;;7.38;;
37305;SDS011;23193;42.656;21.170;2023-05-10T05:16:21;14.05;;;6.85;;
37305;SDS011;23193;42.656;21.170;2023-05-10T05:18:47;10.57;;;6.80;;
37305;SDS011;23193;42.656;21.170;2023-05-10T05:21:14;9.80;;;6.68;;
37305;SDS011;23193;42.656;21.170;2023-05-10T05:23:41;9.02;;;6.57;;
37305;SDS011;23193;42.656;21.170;2023-05-10T05:26:07;6.40;;;4.85;;
37305;SDS011;23193;42.656;21.170;2023-05-10T05:28:33;9.15;;;4.75;;
37305;SDS011;23193;42.656;21.170;2023-05-10T05:31:02;5.07;;;4.57;;
37305;SDS011;23193;42.656;21.170;2023-05-10T05:33:28;5.05;;;4.32;;
37305;SDS011;23193;42.656;21.170;2023-05-10T05:35:54;5.47;;;4.57;;
37305;SDS011;23193;42.656;21.170;2023-05-10T05:38:21;10.20;;;6.70;;
37305;SDS011;23193;42.656;21.170;2023-05-10T05:40:47;8.15;;;5.82;;
37305;SDS011;23193;42.656;21.170;2023-05-10T05:43:13;13.93;;;6.82;;
37305;SDS011;23193;42.656;21.170;2023-05-10T05:45:39;11.68;;;6.38;;
37305;SDS011;23193;42.656;21.170;2023-05-10T05:48:05;8.13;;;6.05;;
37305;SDS011;23193;42.656;21.170;2023-05-10T05:50:32;11.82;;;7.20;;
37305;SDS011;23193;42.656;21.170;2023-05-10T05:52:58;9.25;;;7.22;;
37305;SDS011;23193;42.656;21.170;2023-05-10T05:55:24;16.92;;;7.97;;
37305;SDS011;23193;42.656;21.170;2023-05-10T05:57:51;14.50;;;7.97;;
37305;SDS011;23193;42.656;21.170;2023-05-10T06:00:17;12.00;;;7.72;;
37305;SDS011;23193;42.656;21.170;2023-05-10T06:02:43;16.50;;;8.88;;
37305;SDS011;23193;42.656;21.170;2023-05-10T06:05:10;11.68;;;8.20;;
37305;SDS011;23193;42.656;21.170;2023-05-10T06:07:36;18.20;;;8.65;;
37305;SDS011;23193;42.656;21.170;2023-05-10T06:10:02;13.57;;;8.90;;
37305;SDS011;23193;42.656;21.170;2023-05-10T06:12:28;15.45;;;8.40;;
37305;SDS011;23193;42.656;21.170;2023-05-10T06:14:54;9.82;;;8.18;;
37305;SDS011;23193;42.656;21.170;2023-05-10T06:17:21;14.15;;;8.18;;
37305;SDS011;23193;42.656;21.170;2023-05-10T06:19:47;24.73;;;8.63;;
37305;SDS011;23193;42.656;21.170;2023-05-10T06:22:13;12.13;;;7.78;;
37305;SDS011;23193;42.656;21.170;2023-05-10T06:24:39;14.75;;;8.07;;
37305;SDS011;23193;42.656;21.170;2023-05-10T06:27:06;14.23;;;7.88;;
37305;SDS011;23193;42.656;21.170;2023-05-10T06:29:32;17.00;;;7.95;;
37305;SDS011;23193;42.656;21.170;2023-05-10T06:31:58;14.90;;;8.32;;
37305;SDS011;23193;42.656;21.170;2023-05-10T06:34:25;23.00;;;8.82;;
37305;SDS011;23193;42.656;21.170;2023-05-10T06:36:51;19.73;;;9.05;;
37305;SDS011;23193;42.656;21.170;2023-05-10T06:39:17;11.98;;;6.05;;
37305;SDS011;23193;42.656;21.170;2023-05-10T06:41:44;9.35;;;5.38;;
37305;SDS011;23193;42.656;21.170;2023-05-10T06:44:10;16.33;;;5.22;;
37305;SDS011;23193;42.656;21.170;2023-05-10T06:46:37;10.93;;;4.35;;
37305;SDS011;23193;42.656;21.170;2023-05-10T06:49:03;6.85;;;4.75;;
37305;SDS011;23193;42.656;21.170;2023-05-10T06:51:29;12.20;;;4.05;;
37305;SDS011;23193;42.656;21.170;2023-05-10T06:53:55;9.70;;;4.47;;
37305;SDS011;23193;42.656;21.170;2023-05-10T06:56:22;9.63;;;3.78;;
37305;SDS011;23193;42.656;21.170;2023-05-10T06:58:48;7.15;;;3.63;;
37305;SDS011;23193;42.656;21.170;2023-05-10T07:01:14;5.53;;;3.15;;
37305;SDS011;23193;42.656;21.170;2023-05-10T07:03:41;9.15;;;3.67;;
37305;SDS011;23193;42.656;21.170;2023-05-10T07:06:07;10.02;;;3.10;;
37305;SDS011;23193;42.656;21.170;2023-05-10T07:08:33;12.15;;;4.10;;
37305;SDS011;23193;42.656;21.170;2023-05-10T07:11:02;6.22;;;3.22;;
37305;SDS011;23193;42.656;21.170;2023-05-10T07:13:29;15.55;;;5.18;;
37305;SDS011;23193;42.656;21.170;2023-05-10T07:15:56;8.73;;;4.90;;
37305;SDS011;23193;42.656;21.170;2023-05-10T07:18:23;10.93;;;6.85;;
37305;SDS011;23193;42.656;21.170;2023-05-10T07:20:49;7.50;;;3.40;;
37305;SDS011;23193;42.656;21.170;2023-05-10T07:23:16;7.53;;;4.63;;
37305;SDS011;23193;42.656;21.170;2023-05-10T07:25:46;12.48;;;4.18;;
37305;SDS011;23193;42.656;21.170;2023-05-10T07:28:13;8.00;;;3.45;;
37305;SDS011;23193;42.656;21.170;2023-05-10T07:30:39;6.22;;;4.00;;
37305;SDS011;23193;42.656;21.170;2023-05-10T07:33:05;13.18;;;3.65;;
37305;SDS011;23193;42.656;21.170;2023-05-10T07:35:32;8.80;;;2.88;;
37305;SDS011;23193;42.656;21.170;2023-05-10T07:37:58;9.85;;;3.90;;
37305;SDS011;23193;42.656;21.170;2023-05-10T07:40:25;10.90;;;5.72;;
37305;SDS011;23193;42.656;21.170;2023-05-10T07:42:51;24.77;;;11.40;;
37305;SDS011;23193;42.656;21.170;2023-05-10T07:45:17;5.18;;;2.90;;
37305;SDS011;23193;42.656;21.170;2023-05-10T07:47:43;8.68;;;3.58;;
37305;SDS011;23193;42.656;21.170;2023-05-10T07:50:10;5.45;;;2.65;;
37305;SDS011;23193;42.656;21.170;2023-05-10T07:52:36;3.42;;;2.60;;
37305;SDS011;23193;42.656;21.170;2023-05-10T07:55:02;6.88;;;2.28;;
37305;SDS011;23193;42.656;21.170;2023-05-10T07:57:28;8.88;;;2.63;;
37305;SDS011;23193;42.656;21.170;2023-05-10T07:59:55;9.18;;;2.22;;
37305;SDS011;23193;42.656;21.170;2023-05-10T08:02:22;6.35;;;3.80;;
37305;SDS011;23193;42.656;21.170;2023-05-10T08:04:48;5.65;;;3.10;;
37305;SDS011;23193;42.656;21.170;2023-05-10T08:07:15;8.23;;;2.95;;
37305;SDS011;23193;42.656;21.170;2023-05-10T08:09:43;6.00;;;2.88;;
37305;SDS011;23193;42.656;21.170;2023-05-10T08:12:09;12.68;;;2.47;;
37305;SDS011;23193;42.656;21.170;2023-05-10T08:14:35;12.73;;;3.67;;
37305;SDS011;23193;42.656;21.170;2023-05-10T08:17:02;4.13;;;2.92;;
37305;SDS011;23193;42.656;21.170;2023-05-10T08:19:30;10.48;;;2.58;;
37305;SDS011;23193;42.656;21.170;2023-05-10T08:21:56;21.50;;;2.60;;
37305;SDS011;23193;42.656;21.170;2023-05-10T08:24:25;6.78;;;2.80;;
37305;SDS011;23193;42.656;21.170;2023-05-10T08:26:53;8.40;;;2.50;;
37305;SDS011;23193;42.656;21.170;2023-05-10T08:29:20;8.57;;;2.75;;
37305;SDS011;23193;42.656;21.170;2023-05-10T08:31:50;11.45;;;3.13;;
37305;SDS011;23193;42.656;21.170;2023-05-10T08:34:17;8.43;;;3.30;;
37305;SDS011;23193;42.656;21.170;2023-05-10T08:36:46;13.77;;;4.18;;
37305;SDS011;23193;42.656;21.170;2023-05-10T08:39:13;14.57;;;3.70;;
37305;SDS011;23193;42.656;21.170;2023-05-10T08:41:39;9.05;;;2.97;;
37305;SDS011;23193;42.656;21.170;2023-05-10T08:44:05;4.45;;;2.97;;
37305;SDS011;23193;42.656;21.170;2023-05-10T08:46:34;6.88;;;3.22;;
37305;SDS011;23193;42.656;21.170;2023-05-10T08:49:03;5.50;;;2.78;;
37305;SDS011;23193;42.656;21.170;2023-05-10T08:51:31;7.95;;;3.10;;
37305;SDS011;23193;42.656;21.170;2023-05-10T08:53:59;10.88;;;2.85;;
37305;SDS011;23193;42.656;21.170;2023-05-10T08:56:26;12.98;;;3.88;;
37305;SDS011;23193;42.656;21.170;2023-05-10T08:58:52;4.88;;;2.75;;
37305;SDS011;23193;42.656;21.170;2023-05-10T09:06:24;8.77;;;2.72;;
37305;SDS011;23193;42.656;21.170;2023-05-10T09:08:50;8.73;;;2.70;;
37305;SDS011;23193;42.656;21.170;2023-05-10T09:11:17;6.93;;;3.05;;
37305;SDS011;23193;42.656;21.170;2023-05-10T09:13:46;16.20;;;3.08;;
37305;SDS011;23193;42.656;21.170;2023-05-10T09:16:13;11.60;;;2.83;;
37305;SDS011;23193;42.656;21.170;2023-05-10T09:18:40;14.50;;;2.47;;
37305;SDS011;23193;42.656;21.170;2023-05-10T09:21:06;11.32;;;2.58;;
37305;SDS011;23193;42.656;21.170;2023-05-10T09:23:32;4.70;;;3.25;;
37305;SDS011;23193;42.656;21.170;2023-05-10T09:26:02;9.93;;;4.00;;
37305;SDS011;23193;42.656;21.170;2023-05-10T09:28:31;15.45;;;4.97;;
37305;SDS011;23193;42.656;21.170;2023-05-10T09:30:57;5.75;;;4.10;;
37305;SDS011;23193;42.656;21.170;2023-05-10T09:33:24;9.23;;;4.60;;
37305;SDS011;23193;42.656;21.170;2023-05-10T09:35:53;5.95;;;2.70;;
37305;SDS011;23193;42.656;21.170;2023-05-10T09:38:20;5.45;;;2.70;;
37305;SDS011;23193;42.656;21.170;2023-05-10T09:40:51;4.32;;;2.80;;
37305;SDS011;23193;42.656;21.170;2023-05-10T09:43:22;15.75;;;3.30;;
37305;SDS011;23193;42.656;21.170;2023-05-10T09:45:48;13.10;;;4.43;;
37305;SDS011;23193;42.656;21.170;2023-05-10T09:48:15;6.82;;;3.50;;
37305;SDS011;23193;42.656;21.170;2023-05-10T09:50:41;8.38;;;3.40;;
37305;SDS011;23193;42.656;21.170;2023-05-10T09:53:07;9.93;;;2.80;;
37305;SDS011;23193;42.656;21.170;2023-05-10T09:55:43;5.85;;;2.42;;
37305;SDS011;23193;42.656;21.170;2023-05-10T09:58:14;6.63;;;2.65;;
37305;SDS011;23193;42.656;21.170;2023-05-10T10:00:41;8.65;;;3.00;;
37305;SDS011;23193;42.656;21.170;2023-05-10T10:03:17;10.75;;;4.28;;
37305;SDS011;23193;42.656;21.170;2023-05-10T10:05:44;10.02;;;3.20;;
37305;SDS011;23193;42.656;21.170;2023-05-10T10:08:11;9.73;;;3.30;;
37305;SDS011;23193;42.656;21.170;2023-05-10T10:10:37;8.85;;;3.20;;
37305;SDS011;23193;42.656;21.170;2023-05-10T10:13:05;8.70;;;3.50;;
37305;SDS011;23193;42.656;21.170;2023-05-10T10:15:32;9.80;;;4.00;;
37305;SDS011;23193;42.656;21.170;2023-05-10T10:17:59;9.85;;;3.15;;
37305;SDS011;23193;42.656;21.170;2023-05-10T10:20:25;7.60;;;3.03;;
37305;SDS011;23193;42.656;21.170;2023-05-10T10:22:52;10.07;;;3.40;;
37305;SDS011;23193;42.656;21.170;2023-05-10T10:25:19;13.38;;;5.55;;
37305;SDS011;23193;42.656;21.170;2023-05-10T10:35:48;24.92;;;5.50;;
37305;SDS011;23193;42.656;21.170;2023-05-10T10:38:14;14.77;;;5.93;;
37305;SDS011;23193;42.656;21.170;2023-05-10T10:40:41;20.27;;;6.57;;
37305;SDS011;23193;42.656;21.170;2023-05-10T10:43:26;15.27;;;6.15;;
37305;SDS011;23193;42.656;21.170;2023-05-10T10:48:38;17.42;;;6.70;;
37305;SDS011;23193;42.656;21.170;2023-05-10T10:51:04;13.35;;;6.50;;
37305;SDS011;23193;42.656;21.170;2023-05-10T10:53:30;14.75;;;5.38;;
37305;SDS011;23193;42.656;21.170;2023-05-10T10:56:31;10.07;;;6.05;;
37305;SDS011;23193;42.656;21.170;2023-05-10T10:58:50;15.02;;;7.53;;
37305;SDS011;23193;42.656;21.170;2023-05-10T11:01:17;10.88;;;5.97;;
37305;SDS011;23193;42.656;21.170;2023-05-10T11:06:29;19.45;;;6.75;;
37305;SDS011;23193;42.656;21.170;2023-05-10T11:08:56;18.65;;;6.10;;
37305;SDS011;23193;42.656;21.170;2023-05-10T11:11:23;14.50;;;7.18;;
37305;SDS011;23193;42.656;21.170;2023-05-10T11:13:49;13.85;;;6.15;;
37305;SDS011;23193;42.656;21.170;2023-05-10T11:16:22;11.43;;;7.82;;
37305;SDS011;23193;42.656;21.170;2023-05-10T11:22:11;7.68;;;5.70;;
37305;SDS011;23193;42.656;21.170;2023-05-10T11:24:30;15.80;;;6.55;;
37305;SDS011;23193;42.656;21.170;2023-05-10T11:26:58;12.75;;;5.90;;
37305;SDS011;23193;42.656;21.170;2023-05-10T11:29:25;9.32;;;5.43;;
37305;SDS011;23193;42.656;21.170;2023-05-10T11:31:52;17.50;;;5.60;;
37305;SDS011;23193;42.656;21.170;2023-05-10T11:36:51;10.40;;;6.07;;
37305;SDS011;23193;42.656;21.170;2023-05-10T11:39:19;12.07;;;7.40;;
37305;SDS011;23193;42.656;21.170;2023-05-10T11:41:47;11.15;;;6.75;;
37305;SDS011;23193;42.656;21.170;2023-05-10T11:44:13;12.73;;;7.28;;
37305;SDS011;23193;42.656;21.170;2023-05-10T11:46:41;12.20;;;5.43;;
37305;SDS011;23193;42.656;21.170;2023-05-10T11:49:07;11.60;;;5.50;;
37305;SDS011;23193;42.656;21.170;2023-05-10T11:51:35;10.73;;;5.05;;
37305;SDS011;23193;42.656;21.170;2023-05-10T11:54:01;16.10;;;7.30;;
37305;SDS011;23193;42.656;21.170;2023-05-10T11:56:27;15.98;;;7.10;;
37305;SDS011;23193;42.656;21.170;2023-05-10T11:58:54;17.17;;;8.00;;
37305;SDS011;23193;42.656;21.170;2023-05-10T12:01:21;13.07;;;6.80;;
37305;SDS011;23193;42.656;21.170;2023-05-10T12:03:48;13.65;;;6.63;;
37305;SDS011;23193;42.656;21.170;2023-05-10T12:06:15;13.80;;;6.95;;
37305;SDS011;23193;42.656;21.170;2023-05-10T12:08:44;12.20;;;7.38;;
37305;SDS011;23193;42.656;21.170;2023-05-10T12:11:12;18.13;;;6.90;;
37305;SDS011;23193;42.656;21.170;2023-05-10T12:13:42;17.60;;;6.15;;
37305;SDS011;23193;42.656;21.170;2023-05-10T12:16:18;17.87;;;7.60;;
37305;SDS011;23193;42.656;21.170;2023-05-10T12:18:44;23.52;;;8.80;;
37305;SDS011;23193;42.656;21.170;2023-05-10T12:21:11;21.95;;;8.02;;
37305;SDS011;23193;42.656;21.170;2023-05-10T12:23:38;12.57;;;6.93;;
37305;SDS011;23193;42.656;21.170;2023-05-10T12:26:04;18.85;;;9.35;;
37305;SDS011;23193;42.656;21.170;2023-05-10T12:28:31;22.65;;;8.25;;
37305;SDS011;23193;42.656;21.170;2023-05-10T12:30:58;23.80;;;8.10;;
37305;SDS011;23193;42.656;21.170;2023-05-10T12:33:25;37.65;;;8.75;;
37305;SDS011;23193;42.656;21.170;2023-05-10T12:35:52;35.40;;;8.32;;
37305;SDS011;23193;42.656;21.170;2023-05-10T12:38:25;25.88;;;7.50;;
37305;SDS011;23193;42.656;21.170;2023-05-10T12:40:53;16.88;;;7.03;;
37305;SDS011;23193;42.656;21.170;2023-05-10T12:43:20;18.88;;;6.95;;
37305;SDS011;23193;42.656;21.170;2023-05-10T12:45:46;17.50;;;6.50;;
37305;SDS011;23193;42.656;21.170;2023-05-10T12:48:14;13.23;;;6.15;;
37305;SDS011;23193;42.656;21.170;2023-05-10T12:50:40;18.60;;;7.30;;
37305;SDS011;23193;42.656;21.170;2023-05-10T12:53:06;18.30;;;5.82;;
37305;SDS011;23193;42.656;21.170;2023-05-10T12:55:32;12.95;;;5.07;;
37305;SDS011;23193;42.656;21.170;2023-05-10T12:57:59;14.65;;;5.68;;
37305;SDS011;23193;42.656;21.170;2023-05-10T13:00:25;15.00;;;5.78;;
37305;SDS011;23193;42.656;21.170;2023-05-10T13:02:51;12.07;;;5.40;;
37305;SDS011;23193;42.656;21.170;2023-05-10T13:05:18;10.55;;;5.57;;
37305;SDS011;23193;42.656;21.170;2023-05-10T13:07:44;11.45;;;5.85;;
37305;SDS011;23193;42.656;21.170;2023-05-10T13:10:10;24.45;;;5.78;;
37305;SDS011;23193;42.656;21.170;2023-05-10T13:12:36;13.60;;;5.15;;
37305;SDS011;23193;42.656;21.170;2023-05-10T13:15:02;12.05;;;6.25;;
37305;SDS011;23193;42.656;21.170;2023-05-10T13:17:29;17.25;;;6.43;;
37305;SDS011;23193;42.656;21.170;2023-05-10T13:19:55;15.77;;;6.18;;
37305;SDS011;23193;42.656;21.170;2023-05-10T13:22:21;17.75;;;6.07;;
37305;SDS011;23193;42.656;21.170;2023-05-10T13:24:47;10.48;;;4.85;;
37305;SDS011;23193;42.656;21.170;2023-05-10T13:27:14;24.60;;;6.60;;
37305;SDS011;23193;42.656;21.170;2023-05-10T13:29:40;15.43;;;6.10;;
37305;SDS011;23193;42.656;21.170;2023-05-10T13:32:06;15.50;;;6.75;;
37305;SDS011;23193;42.656;21.170;2023-05-10T13:34:32;18.40;;;6.18;;
37305;SDS011;23193;42.656;21.170;2023-05-10T13:37:00;12.52;;;5.90;;
37305;SDS011;23193;42.656;21.170;2023-05-10T13:39:27;22.08;;;6.13;;
37305;SDS011;23193;42.656;21.170;2023-05-10T13:41:55;19.15;;;7.03;;
37305;SDS011;23193;42.656;21.170;2023-05-10T13:44:22;12.40;;;6.50;;
37305;SDS011;23193;42.656;21.170;2023-05-10T13:46:48;14.07;;;5.15;;
37305;SDS011;23193;42.656;21.170;2023-05-10T13:49:14;16.08;;;6.40;;
37305;SDS011;23193;42.656;21.170;2023-05-10T13:51:42;10.63;;;5.90;;
37305;SDS011;23193;42.656;21.170;2023-05-10T13:54:08;16.35;;;6.53;;
37305;SDS011;23193;42.656;21.170;2023-05-10T13:56:34;16.30;;;6.88;;
37305;SDS011;23193;42.656;21.170;2023-05-10T13:59:00;10.88;;;4.90;;
37305;SDS011;23193;42.656;21.170;2023-05-10T14:01:27;21.65;;;6.50;;
37305;SDS011;23193;42.656;21.170;2023-05-10T14:03:53;13.68;;;5.90;;
37305;SDS011;23193;42.656;21.170;2023-05-10T14:06:19;15.00;;;6.22;;
37305;SDS011;23193;42.656;21.170;2023-05-10T14:08:45;14.60;;;5.97;;
37305;SDS011;23193;42.656;21.170;2023-05-10T14:11:11;12.25;;;5.60;;
37305;SDS011;23193;42.656;21.170;2023-05-10T14:13:38;20.02;;;6.25;;
37305;SDS011;23193;42.656;21.170;2023-05-10T14:16:04;9.88;;;5.40;;
37305;SDS011;23193;42.656;21.170;2023-05-10T14:18:31;10.90;;;5.65;;
37305;SDS011;23193;42.656;21.170;2023-05-10T14:20:57;14.23;;;6.60;;
37305;SDS011;23193;42.656;21.170;2023-05-10T14:23:23;12.15;;;5.70;;
37305;SDS011;23193;42.656;21.170;2023-05-10T14:25:52;17.85;;;6.07;;
37305;SDS011;23193;42.656;21.170;2023-05-10T14:28:18;28.50;;;6.75;;
37305;SDS011;23193;42.656;21.170;2023-05-10T14:30:46;15.68;;;7.50;;
37305;SDS011;23193;42.656;21.170;2023-05-10T14:33:12;15.30;;;6.40;;
37305;SDS011;23193;42.656;21.170;2023-05-10T14:35:38;18.08;;;7.18;;
37305;SDS011;23193;42.656;21.170;2023-05-10T14:38:05;51.20;;;26.90;;
37305;SDS011;23193;42.656;21.170;2023-05-10T14:40:31;15.75;;;6.78;;
37305;SDS011;23193;42.656;21.170;2023-05-10T14:42:58;19.48;;;6.57;;
37305;SDS011;23193;42.656;21.170;2023-05-10T14:45:24;20.52;;;6.18;;
37305;SDS011;23193;42.656;21.170;2023-05-10T14:47:50;15.20;;;5.50;;
37305;SDS011;23193;42.656;21.170;2023-05-10T14:50:16;16.08;;;6.38;;
37305;SDS011;23193;42.656;21.170;2023-05-10T14:52:43;12.35;;;5.78;;
37305;SDS011;23193;42.656;21.170;2023-05-10T14:55:09;14.75;;;5.35;;
37305;SDS011;23193;42.656;21.170;2023-05-10T14:57:35;10.40;;;5.68;;
37305;SDS011;23193;42.656;21.170;2023-05-10T15:00:02;15.07;;;5.93;;
37305;SDS011;23193;42.656;21.170;2023-05-10T15:02:28;11.70;;;5.25;;
37305;SDS011;23193;42.656;21.170;2023-05-10T15:04:55;19.15;;;6.32;;
37305;SDS011;23193;42.656;21.170;2023-05-10T15:07:22;10.55;;;5.50;;
37305;SDS011;23193;42.656;21.170;2023-05-10T15:09:49;14.48;;;5.15;;
37305;SDS011;23193;42.656;21.170;2023-05-10T15:12:16;18.92;;;6.13;;